Terminal Aerodrome Forecast
Issued by NWS

Home | Current Version | Previous Version | Text Only | Print | Product List | Glossary On
Versions: 1 2 3 4 5 6 7 8 9 10 11 12 13 14 15 16 17 18 19 20
949
FTUS43 KAPX 271206 AAA
TAFAPN
TAF AMD
KAPN 271206Z 2712/2812 00000KT 1/4SM FG VV002
     FM271330 VRB03KT P6SM SCT200
     FM271800 13007KT P6SM SCT200
     FM272300 12008KT P6SM VCTS BKN080CB
     FM280300 VRB03KT 6SM -SHRA OVC050=

USA.gov is the U.S. government's official web portal to all federal, state and local government web resources and services.